sensor_id;sensor_type;location;lat;lon;timestamp;temperature;humidity
19781;DHT22;10050;55.492;13.506;2023-03-14T00:02:21;8.10;99.90
19781;DHT22;10050;55.492;13.506;2023-03-14T00:04:54;8.10;99.90
19781;DHT22;10050;55.492;13.506;2023-03-14T00:07:25;8.10;99.90
19781;DHT22;10050;55.492;13.506;2023-03-14T00:09:51;8.00;99.90
19781;DHT22;10050;55.492;13.506;2023-03-14T00:12:19;8.00;99.90
19781;DHT22;10050;55.492;13.506;2023-03-14T00:14:45;8.10;99.90
19781;DHT22;10050;55.492;13.506;2023-03-14T00:17:13;8.10;99.90
19781;DHT22;10050;55.492;13.506;2023-03-14T00:19:39;8.10;99.90
19781;DHT22;10050;55.492;13.506;2023-03-14T00:22:05;8.10;99.90
19781;DHT22;10050;55.492;13.506;2023-03-14T00:24:30;8.20;99.90
19781;DHT22;10050;55.492;13.506;2023-03-14T00:26:56;8.20;99.90
19781;DHT22;10050;55.492;13.506;2023-03-14T00:29:22;8.20;99.90
19781;DHT22;10050;55.492;13.506;2023-03-14T00:31:47;8.20;99.90
19781;DHT22;10050;55.492;13.506;2023-03-14T00:34:16;8.20;99.90
19781;DHT22;10050;55.492;13.506;2023-03-14T00:36:45;8.20;99.90
19781;DHT22;10050;55.492;13.506;2023-03-14T00:39:13;8.20;99.90
19781;DHT22;10050;55.492;13.506;2023-03-14T00:41:38;8.20;99.90
19781;DHT22;10050;55.492;13.506;2023-03-14T00:44:04;8.20;99.90
19781;DHT22;10050;55.492;13.506;2023-03-14T00:46:30;8.10;99.90
19781;DHT22;10050;55.492;13.506;2023-03-14T00:48:55;8.10;99.90
19781;DHT22;10050;55.492;13.506;2023-03-14T00:51:21;8.10;99.90
19781;DHT22;10050;55.492;13.506;2023-03-14T00:53:49;8.10;99.90
19781;DHT22;10050;55.492;13.506;2023-03-14T00:56:16;8.00;99.90
19781;DHT22;10050;55.492;13.506;2023-03-14T00:58:42;8.00;99.90
19781;DHT22;10050;55.492;13.506;2023-03-14T01:01:09;8.00;99.90
19781;DHT22;10050;55.492;13.506;2023-03-14T01:03:36;7.90;99.90
19781;DHT22;10050;55.492;13.506;2023-03-14T01:06:15;7.90;99.90
19781;DHT22;10050;55.492;13.506;2023-03-14T01:08:41;7.80;99.90
19781;DHT22;10050;55.492;13.506;2023-03-14T01:11:09;7.80;99.90
19781;DHT22;10050;55.492;13.506;2023-03-14T01:13:36;7.70;99.90
19781;DHT22;10050;55.492;13.506;2023-03-14T01:16:07;7.70;99.90
19781;DHT22;10050;55.492;13.506;2023-03-14T01:18:33;7.60;99.90
19781;DHT22;10050;55.492;13.506;2023-03-14T01:21:01;7.60;99.90
19781;DHT22;10050;55.492;13.506;2023-03-14T01:23:27;7.60;99.90
19781;DHT22;10050;55.492;13.506;2023-03-14T01:25:52;7.60;99.90
19781;DHT22;10050;55.492;13.506;2023-03-14T01:28:18;7.60;99.90
19781;DHT22;10050;55.492;13.506;2023-03-14T01:30:44;7.60;99.90
19781;DHT22;10050;55.492;13.506;2023-03-14T01:33:10;7.60;99.90
19781;DHT22;10050;55.492;13.506;2023-03-14T01:35:36;7.60;99.90
19781;DHT22;10050;55.492;13.506;2023-03-14T01:38:02;7.60;99.90
19781;DHT22;10050;55.492;13.506;2023-03-14T01:40:28;7.60;99.90
19781;DHT22;10050;55.492;13.506;2023-03-14T01:42:57;7.60;99.90
19781;DHT22;10050;55.492;13.506;2023-03-14T01:48:27;7.60;99.90
19781;DHT22;10050;55.492;13.506;2023-03-14T01:50:54;7.60;99.90
19781;DHT22;10050;55.492;13.506;2023-03-14T01:53:23;7.60;99.90
19781;DHT22;10050;55.492;13.506;2023-03-14T01:55:52;7.60;99.90
19781;DHT22;10050;55.492;13.506;2023-03-14T01:58:23;7.60;99.90
19781;DHT22;10050;55.492;13.506;2023-03-14T02:00:50;7.60;99.90
19781;DHT22;10050;55.492;13.506;2023-03-14T02:03:17;7.60;99.90
19781;DHT22;10050;55.492;13.506;2023-03-14T02:05:46;7.70;99.90
19781;DHT22;10050;55.492;13.506;2023-03-14T02:08:18;7.70;99.90
19781;DHT22;10050;55.492;13.506;2023-03-14T02:10:47;7.70;99.90
19781;DHT22;10050;55.492;13.506;2023-03-14T02:13:15;7.80;99.90
19781;DHT22;10050;55.492;13.506;2023-03-14T02:15:41;7.70;99.90
19781;DHT22;10050;55.492;13.506;2023-03-14T02:18:07;7.70;99.90
19781;DHT22;10050;55.492;13.506;2023-03-14T02:21:04;7.70;99.90
19781;DHT22;10050;55.492;13.506;2023-03-14T02:23:36;7.70;99.90
19781;DHT22;10050;55.492;13.506;2023-03-14T02:26:15;7.70;99.90
19781;DHT22;10050;55.492;13.506;2023-03-14T02:28:42;7.70;99.90
19781;DHT22;10050;55.492;13.506;2023-03-14T02:31:08;7.70;99.90
19781;DHT22;10050;55.492;13.506;2023-03-14T02:33:35;7.70;99.90
19781;DHT22;10050;55.492;13.506;2023-03-14T02:36:06;7.80;99.90
19781;DHT22;10050;55.492;13.506;2023-03-14T02:41:01;7.80;99.90
19781;DHT22;10050;55.492;13.506;2023-03-14T02:43:27;7.90;99.90
19781;DHT22;10050;55.492;13.506;2023-03-14T02:45:53;7.90;99.90
19781;DHT22;10050;55.492;13.506;2023-03-14T02:48:24;7.90;99.90
19781;DHT22;10050;55.492;13.506;2023-03-14T02:50:53;8.00;99.90
19781;DHT22;10050;55.492;13.506;2023-03-14T02:53:24;8.00;99.90
19781;DHT22;10050;55.492;13.506;2023-03-14T02:55:50;8.10;99.90
19781;DHT22;10050;55.492;13.506;2023-03-14T02:58:16;8.20;99.90
19781;DHT22;10050;55.492;13.506;2023-03-14T03:00:42;8.20;99.90
19781;DHT22;10050;55.492;13.506;2023-03-14T03:03:08;8.30;99.90
19781;DHT22;10050;55.492;13.506;2023-03-14T03:05:34;8.30;99.90
19781;DHT22;10050;55.492;13.506;2023-03-14T03:08:00;8.30;99.90
19781;DHT22;10050;55.492;13.506;2023-03-14T03:10:26;8.30;99.90
19781;DHT22;10050;55.492;13.506;2023-03-14T03:12:52;8.30;99.90
19781;DHT22;10050;55.492;13.506;2023-03-14T03:15:18;8.30;99.90
19781;DHT22;10050;55.492;13.506;2023-03-14T03:17:44;8.30;99.90
19781;DHT22;10050;55.492;13.506;2023-03-14T03:20:10;8.30;99.90
19781;DHT22;10050;55.492;13.506;2023-03-14T03:22:36;8.20;99.90
19781;DHT22;10050;55.492;13.506;2023-03-14T03:25:04;8.30;99.90
19781;DHT22;10050;55.492;13.506;2023-03-14T03:27:31;8.20;99.90
19781;DHT22;10050;55.492;13.506;2023-03-14T03:29:57;8.30;99.90
19781;DHT22;10050;55.492;13.506;2023-03-14T03:32:23;8.20;99.90
19781;DHT22;10050;55.492;13.506;2023-03-14T03:34:49;8.30;99.90
19781;DHT22;10050;55.492;13.506;2023-03-14T03:37:15;8.30;99.90
19781;DHT22;10050;55.492;13.506;2023-03-14T03:39:40;8.20;99.90
19781;DHT22;10050;55.492;13.506;2023-03-14T03:42:06;8.20;99.90
19781;DHT22;10050;55.492;13.506;2023-03-14T03:44:32;8.20;99.90
19781;DHT22;10050;55.492;13.506;2023-03-14T03:46:58;8.20;99.90
19781;DHT22;10050;55.492;13.506;2023-03-14T03:49:23;8.20;99.90
19781;DHT22;10050;55.492;13.506;2023-03-14T03:51:49;8.10;99.90
19781;DHT22;10050;55.492;13.506;2023-03-14T03:54:15;8.10;99.90
19781;DHT22;10050;55.492;13.506;2023-03-14T03:56:40;8.20;99.90
19781;DHT22;10050;55.492;13.506;2023-03-14T03:59:06;8.20;99.90
19781;DHT22;10050;55.492;13.506;2023-03-14T04:01:32;8.20;99.90
19781;DHT22;10050;55.492;13.506;2023-03-14T04:03:58;8.20;99.90
19781;DHT22;10050;55.492;13.506;2023-03-14T04:06:24;8.20;99.90
19781;DHT22;10050;55.492;13.506;2023-03-14T04:08:49;8.20;99.90
19781;DHT22;10050;55.492;13.506;2023-03-14T04:11:15;8.20;99.90
19781;DHT22;10050;55.492;13.506;2023-03-14T04:13:41;8.20;99.90
19781;DHT22;10050;55.492;13.506;2023-03-14T04:16:18;8.20;99.90
19781;DHT22;10050;55.492;13.506;2023-03-14T04:18:44;8.20;99.90
19781;DHT22;10050;55.492;13.506;2023-03-14T04:21:10;8.20;99.90
19781;DHT22;10050;55.492;13.506;2023-03-14T04:23:36;8.10;99.90
19781;DHT22;10050;55.492;13.506;2023-03-14T04:26:02;8.10;99.90
19781;DHT22;10050;55.492;13.506;2023-03-14T04:28:28;8.10;99.90
19781;DHT22;10050;55.492;13.506;2023-03-14T04:30:56;8.10;99.90
19781;DHT22;10050;55.492;13.506;2023-03-14T04:33:22;8.10;99.90
19781;DHT22;10050;55.492;13.506;2023-03-14T04:35:48;8.10;99.90
19781;DHT22;10050;55.492;13.506;2023-03-14T04:38:16;8.10;99.90
19781;DHT22;10050;55.492;13.506;2023-03-14T04:40:42;8.10;99.90
19781;DHT22;10050;55.492;13.506;2023-03-14T04:43:11;8.10;99.90
19781;DHT22;10050;55.492;13.506;2023-03-14T04:45:41;8.10;99.90
19781;DHT22;10050;55.492;13.506;2023-03-14T04:48:06;8.00;99.90
19781;DHT22;10050;55.492;13.506;2023-03-14T04:50:32;8.00;99.90
19781;DHT22;10050;55.492;13.506;2023-03-14T04:52:58;8.00;99.90
19781;DHT22;10050;55.492;13.506;2023-03-14T04:55:24;8.00;99.90
19781;DHT22;10050;55.492;13.506;2023-03-14T04:57:49;8.00;99.90
19781;DHT22;10050;55.492;13.506;2023-03-14T05:00:15;8.00;99.90
19781;DHT22;10050;55.492;13.506;2023-03-14T05:02:44;8.00;99.90
19781;DHT22;10050;55.492;13.506;2023-03-14T05:05:09;8.00;99.90
19781;DHT22;10050;55.492;13.506;2023-03-14T05:07:35;8.00;99.90
19781;DHT22;10050;55.492;13.506;2023-03-14T05:10:01;8.00;99.90
19781;DHT22;10050;55.492;13.506;2023-03-14T05:12:27;8.00;99.90
19781;DHT22;10050;55.492;13.506;2023-03-14T05:14:52;8.10;99.90
19781;DHT22;10050;55.492;13.506;2023-03-14T05:17:20;8.10;99.90
19781;DHT22;10050;55.492;13.506;2023-03-14T05:19:46;8.10;99.90
19781;DHT22;10050;55.492;13.506;2023-03-14T05:22:12;8.10;99.90
19781;DHT22;10050;55.492;13.506;2023-03-14T05:24:38;8.10;99.90
19781;DHT22;10050;55.492;13.506;2023-03-14T05:27:04;8.10;99.90
19781;DHT22;10050;55.492;13.506;2023-03-14T05:29:30;8.00;99.90
19781;DHT22;10050;55.492;13.506;2023-03-14T05:31:56;8.00;99.90
19781;DHT22;10050;55.492;13.506;2023-03-14T05:34:21;8.00;99.90
19781;DHT22;10050;55.492;13.506;2023-03-14T05:36:47;8.00;99.90
19781;DHT22;10050;55.492;13.506;2023-03-14T05:39:15;8.00;99.90
19781;DHT22;10050;55.492;13.506;2023-03-14T05:41:43;8.00;99.90
19781;DHT22;10050;55.492;13.506;2023-03-14T05:44:09;8.00;99.90
19781;DHT22;10050;55.492;13.506;2023-03-14T05:46:35;7.90;99.90
19781;DHT22;10050;55.492;13.506;2023-03-14T05:49:00;7.90;99.90
19781;DHT22;10050;55.492;13.506;2023-03-14T05:51:26;8.00;99.90
19781;DHT22;10050;55.492;13.506;2023-03-14T05:53:52;8.00;99.90
19781;DHT22;10050;55.492;13.506;2023-03-14T05:56:17;8.00;99.90
19781;DHT22;10050;55.492;13.506;2023-03-14T05:58:43;8.10;99.90
19781;DHT22;10050;55.492;13.506;2023-03-14T06:01:16;8.10;99.90
19781;DHT22;10050;55.492;13.506;2023-03-14T06:03:42;8.10;99.90
19781;DHT22;10050;55.492;13.506;2023-03-14T06:06:08;8.20;99.90
19781;DHT22;10050;55.492;13.506;2023-03-14T06:08:34;8.20;99.90
19781;DHT22;10050;55.492;13.506;2023-03-14T06:11:02;8.30;99.90
19781;DHT22;10050;55.492;13.506;2023-03-14T06:13:27;8.30;99.90
19781;DHT22;10050;55.492;13.506;2023-03-14T06:15:53;8.30;99.90
19781;DHT22;10050;55.492;13.506;2023-03-14T06:18:21;8.30;99.90
19781;DHT22;10050;55.492;13.506;2023-03-14T06:20:47;8.30;99.90
19781;DHT22;10050;55.492;13.506;2023-03-14T06:23:12;8.30;99.90
19781;DHT22;10050;55.492;13.506;2023-03-14T06:25:38;8.40;99.90
19781;DHT22;10050;55.492;13.506;2023-03-14T06:28:06;8.40;99.90
19781;DHT22;10050;55.492;13.506;2023-03-14T06:30:32;8.40;99.90
19781;DHT22;10050;55.492;13.506;2023-03-14T06:32:57;8.40;99.90
19781;DHT22;10050;55.492;13.506;2023-03-14T06:35:26;8.40;99.90
19781;DHT22;10050;55.492;13.506;2023-03-14T06:37:52;8.40;99.90
19781;DHT22;10050;55.492;13.506;2023-03-14T06:40:21;8.40;99.90
19781;DHT22;10050;55.492;13.506;2023-03-14T06:42:47;8.40;99.90
19781;DHT22;10050;55.492;13.506;2023-03-14T06:45:14;8.40;99.90
19781;DHT22;10050;55.492;13.506;2023-03-14T06:47:39;8.40;99.90
19781;DHT22;10050;55.492;13.506;2023-03-14T06:50:07;8.40;99.90
19781;DHT22;10050;55.492;13.506;2023-03-14T06:52:33;8.30;99.90
19781;DHT22;10050;55.492;13.506;2023-03-14T06:54:59;8.30;99.90
19781;DHT22;10050;55.492;13.506;2023-03-14T06:57:25;8.20;99.90
19781;DHT22;10050;55.492;13.506;2023-03-14T06:59:50;8.20;99.90
19781;DHT22;10050;55.492;13.506;2023-03-14T07:02:19;8.10;99.90
19781;DHT22;10050;55.492;13.506;2023-03-14T07:04:44;8.10;99.90
19781;DHT22;10050;55.492;13.506;2023-03-14T07:07:10;8.10;99.90
19781;DHT22;10050;55.492;13.506;2023-03-14T07:09:36;8.00;99.90
19781;DHT22;10050;55.492;13.506;2023-03-14T07:12:02;8.00;99.90
19781;DHT22;10050;55.492;13.506;2023-03-14T07:14:29;8.00;99.90
19781;DHT22;10050;55.492;13.506;2023-03-14T07:16:55;7.90;99.90
19781;DHT22;10050;55.492;13.506;2023-03-14T07:19:21;7.90;99.90
19781;DHT22;10050;55.492;13.506;2023-03-14T07:21:46;8.00;99.90
19781;DHT22;10050;55.492;13.506;2023-03-14T07:24:12;8.00;99.90
19781;DHT22;10050;55.492;13.506;2023-03-14T07:26:38;8.00;99.90
19781;DHT22;10050;55.492;13.506;2023-03-14T07:29:04;8.10;99.90
19781;DHT22;10050;55.492;13.506;2023-03-14T07:31:30;8.00;99.90
19781;DHT22;10050;55.492;13.506;2023-03-14T07:33:55;8.00;99.90
19781;DHT22;10050;55.492;13.506;2023-03-14T07:36:21;8.00;99.90
19781;DHT22;10050;55.492;13.506;2023-03-14T07:38:47;7.90;99.90
19781;DHT22;10050;55.492;13.506;2023-03-14T07:41:13;7.90;99.90
19781;DHT22;10050;55.492;13.506;2023-03-14T07:43:39;7.90;99.90
19781;DHT22;10050;55.492;13.506;2023-03-14T07:46:05;8.00;99.90
19781;DHT22;10050;55.492;13.506;2023-03-14T07:48:31;8.00;99.90
19781;DHT22;10050;55.492;13.506;2023-03-14T07:50:57;8.10;99.90
19781;DHT22;10050;55.492;13.506;2023-03-14T07:53:23;8.20;99.90
19781;DHT22;10050;55.492;13.506;2023-03-14T07:55:51;8.30;99.90
19781;DHT22;10050;55.492;13.506;2023-03-14T07:58:17;8.40;99.90
19781;DHT22;10050;55.492;13.506;2023-03-14T08:00:43;8.40;99.90
19781;DHT22;10050;55.492;13.506;2023-03-14T08:03:09;8.40;99.90
19781;DHT22;10050;55.492;13.506;2023-03-14T08:05:36;8.40;99.90
19781;DHT22;10050;55.492;13.506;2023-03-14T08:08:03;8.40;99.90
19781;DHT22;10050;55.492;13.506;2023-03-14T08:10:29;8.40;99.90
19781;DHT22;10050;55.492;13.506;2023-03-14T08:12:56;8.50;99.90
19781;DHT22;10050;55.492;13.506;2023-03-14T08:15:22;8.60;99.90
19781;DHT22;10050;55.492;13.506;2023-03-14T08:17:49;8.60;99.90
19781;DHT22;10050;55.492;13.506;2023-03-14T08:20:20;8.60;99.90
19781;DHT22;10050;55.492;13.506;2023-03-14T08:22:48;8.60;99.90
19781;DHT22;10050;55.492;13.506;2023-03-14T08:25:14;8.60;99.90
19781;DHT22;10050;55.492;13.506;2023-03-14T08:27:41;8.60;99.90
19781;DHT22;10050;55.492;13.506;2023-03-14T08:30:09;8.60;99.90
19781;DHT22;10050;55.492;13.506;2023-03-14T08:32:35;8.60;99.90
19781;DHT22;10050;55.492;13.506;2023-03-14T08:35:01;8.50;99.90
19781;DHT22;10050;55.492;13.506;2023-03-14T08:37:26;8.50;99.90
19781;DHT22;10050;55.492;13.506;2023-03-14T08:39:53;8.50;99.90
19781;DHT22;10050;55.492;13.506;2023-03-14T08:42:18;8.50;99.90
19781;DHT22;10050;55.492;13.506;2023-03-14T08:44:45;8.50;99.90
19781;DHT22;10050;55.492;13.506;2023-03-14T08:47:10;8.50;99.90
19781;DHT22;10050;55.492;13.506;2023-03-14T08:49:36;8.50;99.90
19781;DHT22;10050;55.492;13.506;2023-03-14T08:52:03;8.50;99.90
19781;DHT22;10050;55.492;13.506;2023-03-14T08:54:30;8.50;99.90
19781;DHT22;10050;55.492;13.506;2023-03-14T08:56:56;8.50;99.90
19781;DHT22;10050;55.492;13.506;2023-03-14T08:59:22;8.50;99.90
19781;DHT22;10050;55.492;13.506;2023-03-14T09:01:48;8.60;99.90
19781;DHT22;10050;55.492;13.506;2023-03-14T09:04:14;8.60;99.90
19781;DHT22;10050;55.492;13.506;2023-03-14T09:06:40;8.70;99.90
19781;DHT22;10050;55.492;13.506;2023-03-14T09:09:06;8.80;99.90
19781;DHT22;10050;55.492;13.506;2023-03-14T09:11:32;8.80;99.90
19781;DHT22;10050;55.492;13.506;2023-03-14T09:13:58;8.90;99.90
19781;DHT22;10050;55.492;13.506;2023-03-14T09:16:23;9.00;99.90
19781;DHT22;10050;55.492;13.506;2023-03-14T09:18:52;9.10;99.90
19781;DHT22;10050;55.492;13.506;2023-03-14T09:21:25;9.30;99.90
19781;DHT22;10050;55.492;13.506;2023-03-14T09:23:51;9.50;99.90
19781;DHT22;10050;55.492;13.506;2023-03-14T09:26:17;9.70;99.90
19781;DHT22;10050;55.492;13.506;2023-03-14T09:28:42;9.70;99.90
19781;DHT22;10050;55.492;13.506;2023-03-14T09:31:10;9.80;99.90
19781;DHT22;10050;55.492;13.506;2023-03-14T09:33:36;9.80;99.90
19781;DHT22;10050;55.492;13.506;2023-03-14T09:36:03;9.90;99.90
19781;DHT22;10050;55.492;13.506;2023-03-14T09:38:29;10.00;99.90
19781;DHT22;10050;55.492;13.506;2023-03-14T09:40:55;10.10;99.90
19781;DHT22;10050;55.492;13.506;2023-03-14T09:43:24;10.10;99.90
19781;DHT22;10050;55.492;13.506;2023-03-14T09:45:52;10.00;99.90
19781;DHT22;10050;55.492;13.506;2023-03-14T09:48:24;10.00;99.90
19781;DHT22;10050;55.492;13.506;2023-03-14T09:50:54;9.90;99.90
19781;DHT22;10050;55.492;13.506;2023-03-14T09:53:26;9.90;99.90
19781;DHT22;10050;55.492;13.506;2023-03-14T09:55:54;9.90;99.90
19781;DHT22;10050;55.492;13.506;2023-03-14T09:58:22;9.70;99.90
19781;DHT22;10050;55.492;13.506;2023-03-14T10:00:55;9.70;99.90
19781;DHT22;10050;55.492;13.506;2023-03-14T10:03:25;9.60;99.90
19781;DHT22;10050;55.492;13.506;2023-03-14T10:05:51;9.60;99.90
19781;DHT22;10050;55.492;13.506;2023-03-14T10:08:20;9.60;99.90
19781;DHT22;10050;55.492;13.506;2023-03-14T10:10:45;9.60;99.90
19781;DHT22;10050;55.492;13.506;2023-03-14T10:13:17;9.60;99.90
19781;DHT22;10050;55.492;13.506;2023-03-14T10:16:01;9.40;99.90
19781;DHT22;10050;55.492;13.506;2023-03-14T10:18:30;9.30;99.90
19781;DHT22;10050;55.492;13.506;2023-03-14T10:21:28;9.30;99.90
19781;DHT22;10050;55.492;13.506;2023-03-14T10:23:53;9.30;99.90
19781;DHT22;10050;55.492;13.506;2023-03-14T10:26:24;9.30;99.90
19781;DHT22;10050;55.492;13.506;2023-03-14T10:28:54;9.40;99.90
19781;DHT22;10050;55.492;13.506;2023-03-14T10:31:26;9.50;99.90
19781;DHT22;10050;55.492;13.506;2023-03-14T10:34:25;9.60;99.90
19781;DHT22;10050;55.492;13.506;2023-03-14T10:36:59;9.60;99.90
19781;DHT22;10050;55.492;13.506;2023-03-14T10:42:32;9.60;99.90
19781;DHT22;10050;55.492;13.506;2023-03-14T10:47:49;9.50;99.90
19781;DHT22;10050;55.492;13.506;2023-03-14T10:50:27;9.40;99.90
19781;DHT22;10050;55.492;13.506;2023-03-14T10:52:54;9.30;99.90
19781;DHT22;10050;55.492;13.506;2023-03-14T10:55:20;9.20;99.90
19781;DHT22;10050;55.492;13.506;2023-03-14T10:57:46;9.30;99.90
19781;DHT22;10050;55.492;13.506;2023-03-14T11:00:20;9.20;99.90
19781;DHT22;10050;55.492;13.506;2023-03-14T11:03:10;9.10;99.90
19781;DHT22;10050;55.492;13.506;2023-03-14T11:08:19;8.80;99.90
19781;DHT22;10050;55.492;13.506;2023-03-14T11:10:49;8.60;99.90
19781;DHT22;10050;55.492;13.506;2023-03-14T11:16:51;8.20;99.90
19781;DHT22;10050;55.492;13.506;2023-03-14T11:25:32;7.90;99.90
19781;DHT22;10050;55.492;13.506;2023-03-14T11:28:09;7.80;99.90
19781;DHT22;10050;55.492;13.506;2023-03-14T11:30:52;7.70;99.90
19781;DHT22;10050;55.492;13.506;2023-03-14T11:33:25;7.60;99.90
19781;DHT22;10050;55.492;13.506;2023-03-14T11:36:08;7.50;99.90
19781;DHT22;10050;55.492;13.506;2023-03-14T11:38:43;7.50;99.90
19781;DHT22;10050;55.492;13.506;2023-03-14T11:41:22;7.60;99.90
19781;DHT22;10050;55.492;13.506;2023-03-14T11:43:54;7.50;99.90
19781;DHT22;10050;55.492;13.506;2023-03-14T11:46:33;7.40;99.90
19781;DHT22;10050;55.492;13.506;2023-03-14T11:52:19;7.10;99.90
19781;DHT22;10050;55.492;13.506;2023-03-14T11:57:26;7.10;99.90
19781;DHT22;10050;55.492;13.506;2023-03-14T12:00:05;7.00;99.90
19781;DHT22;10050;55.492;13.506;2023-03-14T12:08:30;6.80;99.90
19781;DHT22;10050;55.492;13.506;2023-03-14T12:11:08;6.60;99.90
19781;DHT22;10050;55.492;13.506;2023-03-14T12:13:38;6.50;99.90
19781;DHT22;10050;55.492;13.506;2023-03-14T12:16:26;6.50;99.90
19781;DHT22;10050;55.492;13.506;2023-03-14T12:18:53;6.50;99.90
19781;DHT22;10050;55.492;13.506;2023-03-14T12:21:19;6.60;99.90
19781;DHT22;10050;55.492;13.506;2023-03-14T12:23:48;6.70;99.90
19781;DHT22;10050;55.492;13.506;2023-03-14T12:26:24;6.60;99.90
19781;DHT22;10050;55.492;13.506;2023-03-14T12:28:52;6.50;99.90
19781;DHT22;10050;55.492;13.506;2023-03-14T12:31:48;6.40;99.90
19781;DHT22;10050;55.492;13.506;2023-03-14T12:41:52;6.80;99.90
19781;DHT22;10050;55.492;13.506;2023-03-14T12:49:47;6.80;99.90
19781;DHT22;10050;55.492;13.506;2023-03-14T12:52:20;6.80;99.90
19781;DHT22;10050;55.492;13.506;2023-03-14T12:54:54;7.00;99.90
19781;DHT22;10050;55.492;13.506;2023-03-14T12:57:44;7.20;99.90
19781;DHT22;10050;55.492;13.506;2023-03-14T13:00:20;7.30;99.90
19781;DHT22;10050;55.492;13.506;2023-03-14T13:02:47;7.40;99.90
19781;DHT22;10050;55.492;13.506;2023-03-14T13:05:22;7.20;99.90
19781;DHT22;10050;55.492;13.506;2023-03-14T13:15:40;6.80;99.90
19781;DHT22;10050;55.492;13.506;2023-03-14T13:20:41;6.80;99.90
19781;DHT22;10050;55.492;13.506;2023-03-14T13:23:20;6.80;99.90
19781;DHT22;10050;55.492;13.506;2023-03-14T13:25:46;6.80;99.90
19781;DHT22;10050;55.492;13.506;2023-03-14T13:28:14;6.80;99.90
19781;DHT22;10050;55.492;13.506;2023-03-14T13:30:42;6.80;99.90
19781;DHT22;10050;55.492;13.506;2023-03-14T13:33:17;6.80;99.90
19781;DHT22;10050;55.492;13.506;2023-03-14T13:35:48;6.80;99.90
19781;DHT22;10050;55.492;13.506;2023-03-14T13:38:25;6.70;99.90
19781;DHT22;10050;55.492;13.506;2023-03-14T13:40:54;6.60;99.90
19781;DHT22;10050;55.492;13.506;2023-03-14T13:43:41;6.60;99.90
19781;DHT22;10050;55.492;13.506;2023-03-14T13:46:16;6.50;99.90
19781;DHT22;10050;55.492;13.506;2023-03-14T13:49:06;6.50;99.90
19781;DHT22;10050;55.492;13.506;2023-03-14T13:51:34;6.60;99.90
19781;DHT22;10050;55.492;13.506;2023-03-14T13:54:03;6.60;99.90
19781;DHT22;10050;55.492;13.506;2023-03-14T13:56:32;6.60;99.90
19781;DHT22;10050;55.492;13.506;2023-03-14T13:58:58;6.70;99.90
19781;DHT22;10050;55.492;13.506;2023-03-14T14:01:34;6.60;99.90
19781;DHT22;10050;55.492;13.506;2023-03-14T14:04:22;6.60;99.90
19781;DHT22;10050;55.492;13.506;2023-03-14T14:06:57;6.60;99.90
19781;DHT22;10050;55.492;13.506;2023-03-14T14:12:00;6.60;99.90
19781;DHT22;10050;55.492;13.506;2023-03-14T14:14:36;6.60;99.90
19781;DHT22;10050;55.492;13.506;2023-03-14T14:17:07;6.50;99.90
19781;DHT22;10050;55.492;13.506;2023-03-14T14:19:34;6.50;99.90
19781;DHT22;10050;55.492;13.506;2023-03-14T14:22:01;6.40;99.90
19781;DHT22;10050;55.492;13.506;2023-03-14T14:24:32;6.40;99.90
19781;DHT22;10050;55.492;13.506;2023-03-14T14:27:20;6.50;99.90
19781;DHT22;10050;55.492;13.506;2023-03-14T14:29:58;6.50;99.90
19781;DHT22;10050;55.492;13.506;2023-03-14T14:32:24;6.50;99.90
19781;DHT22;10050;55.492;13.506;2023-03-14T14:35:00;6.50;99.90
19781;DHT22;10050;55.492;13.506;2023-03-14T14:37:28;6.50;99.90
19781;DHT22;10050;55.492;13.506;2023-03-14T14:40:00;6.50;99.90
19781;DHT22;10050;55.492;13.506;2023-03-14T14:42:32;6.40;99.90
19781;DHT22;10050;55.492;13.506;2023-03-14T14:44:58;6.40;99.90
19781;DHT22;10050;55.492;13.506;2023-03-14T14:47:26;6.40;99.90
19781;DHT22;10050;55.492;13.506;2023-03-14T14:49:54;6.40;99.90
19781;DHT22;10050;55.492;13.506;2023-03-14T14:52:31;6.40;99.90
19781;DHT22;10050;55.492;13.506;2023-03-14T14:55:11;6.50;99.90
19781;DHT22;10050;55.492;13.506;2023-03-14T14:57:38;6.50;99.90
19781;DHT22;10050;55.492;13.506;2023-03-14T15:00:19;6.40;99.90
19781;DHT22;10050;55.492;13.506;2023-03-14T15:02:47;6.40;99.90
19781;DHT22;10050;55.492;13.506;2023-03-14T15:05:24;6.40;99.90
19781;DHT22;10050;55.492;13.506;2023-03-14T15:07:50;6.30;99.90
19781;DHT22;10050;55.492;13.506;2023-03-14T15:10:19;6.30;99.90
19781;DHT22;10050;55.492;13.506;2023-03-14T15:12:45;6.30;99.90
19781;DHT22;10050;55.492;13.506;2023-03-14T15:15:13;6.30;99.90
19781;DHT22;10050;55.492;13.506;2023-03-14T15:17:39;6.30;99.90
19781;DHT22;10050;55.492;13.506;2023-03-14T15:20:06;6.30;99.90
19781;DHT22;10050;55.492;13.506;2023-03-14T15:22:35;6.30;99.90
19781;DHT22;10050;55.492;13.506;2023-03-14T15:25:00;6.30;99.90
19781;DHT22;10050;55.492;13.506;2023-03-14T15:27:28;6.30;99.90
19781;DHT22;10050;55.492;13.506;2023-03-14T15:29:55;6.30;99.90
19781;DHT22;10050;55.492;13.506;2023-03-14T15:32:21;6.30;99.90
19781;DHT22;10050;55.492;13.506;2023-03-14T15:34:49;6.20;99.90
19781;DHT22;10050;55.492;13.506;2023-03-14T15:37:16;6.20;99.90
19781;DHT22;10050;55.492;13.506;2023-03-14T15:39:42;6.20;99.90
19781;DHT22;10050;55.492;13.506;2023-03-14T15:42:08;6.20;99.90
19781;DHT22;10050;55.492;13.506;2023-03-14T15:44:34;6.20;99.90
19781;DHT22;10050;55.492;13.506;2023-03-14T15:47:00;6.20;99.90
19781;DHT22;10050;55.492;13.506;2023-03-14T15:49:27;6.20;99.90
19781;DHT22;10050;55.492;13.506;2023-03-14T15:51:52;6.20;99.90
19781;DHT22;10050;55.492;13.506;2023-03-14T15:54:18;6.10;99.90
19781;DHT22;10050;55.492;13.506;2023-03-14T15:56:44;6.20;99.90
19781;DHT22;10050;55.492;13.506;2023-03-14T15:59:09;6.10;99.90
19781;DHT22;10050;55.492;13.506;2023-03-14T16:01:35;6.10;99.90
19781;DHT22;10050;55.492;13.506;2023-03-14T16:04:01;6.10;99.90
19781;DHT22;10050;55.492;13.506;2023-03-14T16:06:28;6.10;99.90
19781;DHT22;10050;55.492;13.506;2023-03-14T16:08:54;6.00;99.90
19781;DHT22;10050;55.492;13.506;2023-03-14T16:11:20;6.00;99.90
19781;DHT22;10050;55.492;13.506;2023-03-14T16:13:46;5.90;99.90
19781;DHT22;10050;55.492;13.506;2023-03-14T16:16:13;5.90;99.90
19781;DHT22;10050;55.492;13.506;2023-03-14T16:18:39;5.90;99.90
19781;DHT22;10050;55.492;13.506;2023-03-14T16:21:14;5.90;99.90
19781;DHT22;10050;55.492;13.506;2023-03-14T16:23:40;5.90;99.90
19781;DHT22;10050;55.492;13.506;2023-03-14T16:26:08;5.90;99.90
19781;DHT22;10050;55.492;13.506;2023-03-14T16:28:35;5.80;99.90
19781;DHT22;10050;55.492;13.506;2023-03-14T16:31:02;5.80;99.90
19781;DHT22;10050;55.492;13.506;2023-03-14T16:33:28;5.80;99.90
19781;DHT22;10050;55.492;13.506;2023-03-14T16:35:56;5.80;99.90
19781;DHT22;10050;55.492;13.506;2023-03-14T16:38:23;5.80;99.90
19781;DHT22;10050;55.492;13.506;2023-03-14T16:41:09;5.70;99.90